Time;durP1;ratioP1;P1;durP2;ratioP2;P2;SDS_P1;SDS_P2;PMS_P1;PMS_P2;Temp;Humidity;BMP_temperature;BMP_pressure;BME280_temperature;BME280_humidity;BME280_pressure;Samples;Min_cycle;Max_cycle;Signal;HPM_P1;HPM_P2
2022/07/02 00:00:16;;;;;;;0.10;0.10;;;15.50;99.90;;;;;;6182060;23;20414;-77
2022/07/02 00:02:43;;;;;;;0.17;0.17;;;15.40;99.90;;;;;;6183008;23;20043;-76
2022/07/02 00:05:12;;;;;;;0.20;0.20;;;15.30;99.90;;;;;;6181517;23;20352;-77
2022/07/02 00:07:38;;;;;;;0.13;0.13;;;15.40;99.90;;;;;;6204350;23;20082;-76
2022/07/02 00:10:05;;;;;;;0.20;0.20;;;15.30;99.90;;;;;;6209841;23;20477;-75
2022/07/02 00:12:31;;;;;;;0.10;0.10;;;15.30;99.90;;;;;;6180261;23;20024;-77
2022/07/02 00:14:58;;;;;;;0.20;0.20;;;15.30;99.90;;;;;;6206965;23;20341;-76
2022/07/02 00:17:25;;;;;;;0.13;0.13;;;15.20;99.90;;;;;;6205890;23;20025;-77
2022/07/02 00:19:52;;;;;;;0.20;0.20;;;15.20;99.90;;;;;;6181837;23;20091;-77
2022/07/02 00:22:18;;;;;;;0.10;0.10;;;15.20;99.90;;;;;;6208377;23;20017;-76
2022/07/02 00:24:44;;;;;;;0.20;0.20;;;15.10;99.90;;;;;;6207437;23;20528;-77
2022/07/02 00:27:11;;;;;;;0.10;0.10;;;15.10;99.90;;;;;;6207524;23;20017;-77
2022/07/02 00:29:47;;;;;;;0.10;0.10;;;15.10;99.90;;;;;;6207051;23;20417;-78
2022/07/02 00:32:13;;;;;;;0.13;0.13;;;15.10;99.90;;;;;;6183039;23;20017;-77
2022/07/02 00:34:42;;;;;;;0.10;0.10;;;15.00;99.90;;;;;;6180120;23;20755;-77
2022/07/02 00:37:09;;;;;;;0.10;0.10;;;15.00;99.90;;;;;;6208106;23;20016;-77
2022/07/02 00:39:36;;;;;;;0.20;0.20;;;14.90;99.90;;;;;;6180726;23;20048;-77
2022/07/02 00:42:03;;;;;;;0.17;0.17;;;14.90;99.90;;;;;;6207640;23;20012;-78
2022/07/02 00:44:30;;;;;;;0.10;0.10;;;14.80;99.90;;;;;;6206803;23;20071;-77
2022/07/02 00:47:06;;;;;;;0.20;0.20;;;14.80;99.90;;;;;;6181057;23;20414;-77
2022/07/02 00:49:34;;;;;;;0.10;0.10;;;14.80;99.90;;;;;;6180725;23;20112;-78
2022/07/02 00:52:01;;;;;;;0.15;0.15;;;14.80;99.90;;;;;;6205965;23;20654;-77
2022/07/02 00:54:27;;;;;;;0.15;0.15;;;14.80;99.90;;;;;;6208008;23;20471;-78
2022/07/02 00:56:54;;;;;;;0.15;0.15;;;14.80;99.90;;;;;;6209121;23;20290;-77
2022/07/02 00:59:24;;;;;;;0.10;0.10;;;14.80;99.90;;;;;;6209095;23;20016;-76
2022/07/02 01:01:51;;;;;;;0.10;0.10;;;14.80;99.90;;;;;;6207515;23;20024;-77
2022/07/02 01:04:17;;;;;;;0.20;0.20;;;14.80;99.90;;;;;;6181442;23;20406;-77
2022/07/02 01:06:44;;;;;;;0.20;0.20;;;14.80;99.90;;;;;;6181138;23;20108;-76
2022/07/02 01:12:02;;;;;;;0.15;0.15;;;14.80;99.90;;;;;;6115186;23;20479;-77
2022/07/02 01:14:29;;;;;;;0.20;0.20;;;14.80;99.90;;;;;;6208539;23;20017;-77
2022/07/02 01:16:55;;;;;;;0.20;0.20;;;14.80;99.90;;;;;;6206548;23;20532;-77
2022/07/02 01:19:23;;;;;;;0.20;0.20;;;14.80;99.90;;;;;;6207355;23;20027;-77
2022/07/02 01:22:09;;;;;;;0.20;0.20;;;14.80;99.90;;;;;;6212279;23;20645;-79
2022/07/02 01:24:37;;;;;;;0.20;0.20;;;14.80;99.90;;;;;;6209053;23;20047;-77
2022/07/02 01:27:02;;;;;;;0.10;0.10;;;14.80;99.90;;;;;;6181741;23;20353;-79
2022/07/02 01:29:28;;;;;;;0.10;0.10;;;14.80;99.90;;;;;;6207182;23;20029;-77
2022/07/02 01:31:54;;;;;;;0.20;0.20;;;14.80;99.90;;;;;;6209155;23;20385;-76
2022/07/02 01:34:20;;;;;;;0.20;0.20;;;14.80;99.90;;;;;;6207928;23;20028;-77
2022/07/02 01:36:45;;;;;;;0.10;0.10;;;14.70;99.90;;;;;;6178970;23;20841;-76
2022/07/02 01:39:11;;;;;;;0.10;0.10;;;14.70;99.90;;;;;;6179192;23;20095;-77
2022/07/02 01:41:42;;;;;;;0.20;0.20;;;14.70;99.90;;;;;;6207648;23;20024;-76
2022/07/02 01:44:08;;;;;;;0.17;0.17;;;14.60;99.90;;;;;;6179461;23;20542;-77
2022/07/02 01:46:35;;;;;;;0.10;0.10;;;14.60;99.90;;;;;;6181035;23;20042;-76
2022/07/02 01:49:01;;;;;;;0.20;0.20;;;14.60;99.90;;;;;;6194935;23;20096;-77
2022/07/02 01:51:26;;;;;;;0.10;0.10;;;14.50;99.90;;;;;;6208589;23;20044;-77
2022/07/02 01:53:52;;;;;;;0.20;0.20;;;14.50;99.90;;;;;;6208555;23;20017;-78
2022/07/02 01:56:18;;;;;;;0.20;0.20;;;14.50;99.90;;;;;;6211359;23;20066;-78
2022/07/02 01:58:44;;;;;;;0.10;0.10;;;14.50;99.90;;;;;;6208815;23;20048;-78
2022/07/02 02:01:12;;;;;;;0.15;0.15;;;14.50;99.90;;;;;;6183073;23;20025;-78
2022/07/02 02:03:40;;;;;;;0.20;0.20;;;14.50;99.90;;;;;;6184035;23;20480;-77
2022/07/02 02:06:06;;;;;;;0.10;0.10;;;14.50;99.90;;;;;;6209278;23;20092;-78
2022/07/02 02:08:32;;;;;;;0.20;0.20;;;14.50;99.90;;;;;;6182588;23;20343;-79
2022/07/02 02:10:57;;;;;;;0.10;0.10;;;14.50;99.90;;;;;;6184229;23;20021;-79
2022/07/02 02:13:23;;;;;;;0.20;0.20;;;14.50;99.90;;;;;;6208722;23;20108;-78
2022/07/02 02:15:49;;;;;;;0.10;0.10;;;14.50;99.90;;;;;;6207402;23;20055;-78
2022/07/02 02:18:17;;;;;;;0.17;0.17;;;14.50;99.90;;;;;;6181041;23;20028;-78
2022/07/02 02:20:43;;;;;;;0.20;0.20;;;14.50;99.90;;;;;;6181569;23;20027;-78
2022/07/02 02:23:08;;;;;;;0.15;0.15;;;14.50;99.90;;;;;;6208851;23;20333;-78
2022/07/02 02:25:34;;;;;;;0.20;0.20;;;14.50;99.90;;;;;;6210626;23;20433;-78
2022/07/02 02:28:00;;;;;;;0.10;0.10;;;14.50;99.90;;;;;;6196009;23;20028;-77
2022/07/02 02:30:25;;;;;;;0.10;0.10;;;14.40;99.90;;;;;;6211085;23;20020;-77
2022/07/02 02:32:51;;;;;;;0.20;0.20;;;14.40;99.90;;;;;;6183112;23;20113;-77
2022/07/02 02:35:17;;;;;;;0.10;0.10;;;14.40;99.90;;;;;;6181791;23;20083;-77
2022/07/02 02:37:43;;;;;;;0.13;0.13;;;14.40;99.90;;;;;;6182424;23;20060;-79
2022/07/02 02:40:09;;;;;;;0.20;0.20;;;14.40;99.90;;;;;;6210338;23;20079;-78
2022/07/02 02:42:35;;;;;;;0.20;0.20;;;14.40;99.90;;;;;;6210535;23;20027;-77
2022/07/02 02:45:01;;;;;;;0.10;0.10;;;14.40;99.90;;;;;;6182126;23;20031;-78
2022/07/02 02:47:27;;;;;;;0.20;0.20;;;14.40;99.90;;;;;;6210027;23;20009;-78
2022/07/02 02:49:52;;;;;;;0.20;0.20;;;14.40;99.90;;;;;;6207803;23;20020;-78
2022/07/02 02:52:18;;;;;;;0.20;0.20;;;14.30;99.90;;;;;;6181560;23;20099;-77
2022/07/02 02:54:44;;;;;;;0.20;0.20;;;14.40;99.90;;;;;;6178540;23;20469;-77
2022/07/02 02:57:10;;;;;;;0.20;0.20;;;14.40;99.90;;;;;;6183195;23;20427;-78
2022/07/02 02:59:36;;;;;;;0.13;0.13;;;14.40;99.90;;;;;;6207430;23;20085;-79
2022/07/02 03:02:02;;;;;;;0.10;0.10;;;14.40;99.90;;;;;;6181912;23;20031;-78
2022/07/02 03:04:27;;;;;;;0.10;0.10;;;14.40;99.90;;;;;;6182920;23;20016;-77
2022/07/02 03:06:53;;;;;;;0.10;0.10;;;14.40;99.90;;;;;;6183453;23;20024;-78
2022/07/02 03:09:18;;;;;;;0.10;0.10;;;14.30;99.90;;;;;;6208017;23;20013;-78
2022/07/02 03:11:44;;;;;;;0.20;0.20;;;14.50;99.90;;;;;;6210620;23;20016;-77
2022/07/02 03:14:10;;;;;;;0.10;0.10;;;14.50;99.90;;;;;;6179452;23;20492;-78
2022/07/02 03:16:36;;;;;;;0.20;0.20;;;14.50;99.90;;;;;;6210211;23;20115;-77
2022/07/02 03:19:01;;;;;;;0.20;0.20;;;14.50;99.90;;;;;;6209383;23;20052;-78
2022/07/02 03:21:27;;;;;;;0.10;0.10;;;14.50;99.90;;;;;;6181910;23;20052;-78
2022/07/02 03:23:53;;;;;;;0.15;0.15;;;14.50;99.90;;;;;;6181085;23;20360;-77
2022/07/02 03:26:18;;;;;;;0.20;0.20;;;14.50;99.90;;;;;;6209372;23;20017;-78
2022/07/02 03:28:44;;;;;;;0.20;0.20;;;14.50;99.90;;;;;;6181236;23;20086;-78
2022/07/02 03:31:09;;;;;;;0.20;0.20;;;14.50;99.90;;;;;;6182796;23;20097;-77
2022/07/02 03:33:35;;;;;;;0.15;0.15;;;14.60;99.90;;;;;;6208721;23;20017;-77
2022/07/02 03:36:01;;;;;;;0.10;0.10;;;14.50;99.90;;;;;;6208430;23;20025;-78
2022/07/02 03:38:27;;;;;;;0.10;0.10;;;14.50;99.90;;;;;;6181660;23;20009;-78
2022/07/02 03:40:53;;;;;;;0.13;0.13;;;14.50;99.90;;;;;;6187005;23;20020;-78
2022/07/02 03:43:19;;;;;;;0.20;0.20;;;14.50;99.90;;;;;;6182030;23;20028;-79
2022/07/02 03:45:44;;;;;;;0.20;0.20;;;14.40;99.90;;;;;;6183447;23;20464;-77
2022/07/02 03:48:10;;;;;;;0.10;0.10;;;14.40;99.90;;;;;;6182002;23;20024;-77
2022/07/02 03:50:38;;;;;;;0.20;0.20;;;14.40;99.90;;;;;;6183036;23;20138;-77
2022/07/02 03:53:04;;;;;;;0.20;0.20;;;14.30;99.90;;;;;;6181990;23;20020;-76
2022/07/02 03:55:30;;;;;;;0.20;0.20;;;14.30;99.90;;;;;;6182607;23;20016;-77
2022/07/02 03:57:56;;;;;;;0.20;0.20;;;14.30;99.90;;;;;;6208183;23;20389;-76
2022/07/02 04:00:22;;;;;;;0.10;0.10;;;14.20;99.90;;;;;;6209893;23;20096;-77
2022/07/02 04:02:47;;;;;;;0.10;0.10;;;14.20;99.90;;;;;;6209638;23;20028;-77
2022/07/02 04:05:13;;;;;;;0.15;0.15;;;14.20;99.90;;;;;;6181384;23;20441;-77
2022/07/02 04:07:39;;;;;;;0.10;0.10;;;14.30;99.90;;;;;;6208908;23;20070;-76
2022/07/02 04:10:05;;;;;;;0.20;0.20;;;14.30;99.90;;;;;;6181142;23;20090;-76
2022/07/02 04:12:31;;;;;;;0.20;0.20;;;14.30;99.90;;;;;;6206510;23;20107;-77
2022/07/02 04:14:57;;;;;;;0.10;0.10;;;14.30;99.90;;;;;;6177845;23;20279;-78
2022/07/02 04:17:23;;;;;;;0.20;0.20;;;14.20;99.90;;;;;;6181341;23;20029;-77
2022/07/02 04:19:49;;;;;;;0.10;0.10;;;14.30;99.90;;;;;;6180728;23;20067;-77
2022/07/02 04:22:17;;;;;;;0.20;0.20;;;14.30;99.90;;;;;;6209344;23;20645;-76
2022/07/02 04:24:42;;;;;;;0.10;0.10;;;14.30;99.90;;;;;;6208020;23;20019;-77
2022/07/02 04:27:08;;;;;;;0.10;0.10;;;14.30;99.90;;;;;;6205019;23;20020;-77
2022/07/02 04:29:34;;;;;;;0.20;0.20;;;14.30;99.90;;;;;;6177656;23;20467;-76
2022/07/02 04:32:00;;;;;;;0.10;0.10;;;14.40;99.90;;;;;;6205927;23;20092;-77
2022/07/02 04:34:26;;;;;;;0.20;0.20;;;14.40;99.90;;;;;;6177918;23;20021;-77
2022/07/02 04:36:52;;;;;;;0.20;0.20;;;14.40;99.90;;;;;;6209060;23;20009;-76
2022/07/02 04:39:17;;;;;;;0.20;0.20;;;14.50;99.90;;;;;;6208192;23;20310;-78
2022/07/02 04:41:43;;;;;;;0.20;0.20;;;14.50;99.90;;;;;;6180819;23;20016;-77
2022/07/02 04:44:09;;;;;;;0.10;0.10;;;14.60;99.90;;;;;;6180793;23;20027;-78
2022/07/02 04:46:34;;;;;;;0.15;0.15;;;14.60;99.90;;;;;;6205389;23;20017;-77
2022/07/02 04:49:00;;;;;;;0.20;0.20;;;14.60;99.90;;;;;;6181363;23;20028;-78
2022/07/02 04:51:26;;;;;;;0.17;0.17;;;14.70;99.90;;;;;;6209583;23;20024;-77
2022/07/02 04:53:52;;;;;;;0.10;0.10;;;14.70;99.90;;;;;;6178930;23;20028;-78
2022/07/02 04:56:20;;;;;;;0.10;0.10;;;14.80;99.90;;;;;;6181645;23;20031;-78
2022/07/02 04:58:46;;;;;;;0.20;0.20;;;14.80;99.90;;;;;;6206710;23;20187;-77
2022/07/02 05:01:12;;;;;;;0.20;0.20;;;14.90;99.90;;;;;;6207231;23;20048;-79
2022/07/02 05:03:37;;;;;;;0.13;0.13;;;15.00;99.90;;;;;;6207757;23;20617;-79
2022/07/02 05:06:03;;;;;;;0.10;0.10;;;15.00;99.90;;;;;;6179709;23;20017;-78
2022/07/02 05:08:29;;;;;;;0.10;0.10;;;15.10;99.90;;;;;;6205564;23;20016;-79
2022/07/02 05:10:55;;;;;;;0.17;0.17;;;15.10;99.90;;;;;;6207504;23;20260;-77
2022/07/02 05:13:21;;;;;;;0.13;0.13;;;15.20;99.90;;;;;;6206964;23;20013;-78
2022/07/02 05:15:48;;;;;;;0.10;0.10;;;15.20;99.90;;;;;;6205744;23;20048;-78
2022/07/02 05:18:13;;;;;;;0.10;0.10;;;15.20;99.90;;;;;;6208590;23;20017;-78
2022/07/02 05:20:40;;;;;;;0.20;0.20;;;15.20;99.90;;;;;;6205550;23;20035;-77
2022/07/02 05:23:05;;;;;;;0.15;0.15;;;15.20;99.90;;;;;;6179907;23;20017;-78
2022/07/02 05:25:31;;;;;;;0.10;0.10;;;15.30;99.90;;;;;;6207783;23;20016;-78
2022/07/02 05:27:56;;;;;;;0.20;0.20;;;15.30;99.90;;;;;;6206637;23;20020;-77
2022/07/02 05:30:22;;;;;;;0.20;0.20;;;15.30;99.90;;;;;;6181072;23;20020;-78
2022/07/02 05:32:48;;;;;;;0.10;0.10;;;15.40;99.90;;;;;;6206213;23;20051;-78
2022/07/02 05:35:13;;;;;;;0.10;0.10;;;15.40;99.90;;;;;;6205011;23;20019;-79
2022/07/02 05:37:39;;;;;;;0.20;0.20;;;15.40;99.90;;;;;;6205866;23;20012;-77
2022/07/02 05:40:05;;;;;;;0.20;0.20;;;15.40;99.90;;;;;;6208152;23;20124;-78
2022/07/02 05:42:31;;;;;;;0.13;0.13;;;15.40;99.90;;;;;;6182458;23;20043;-77
2022/07/02 05:44:57;;;;;;;0.15;0.15;;;15.50;99.90;;;;;;6205899;23;20476;-74
2022/07/02 05:47:23;;;;;;;0.20;0.20;;;15.50;99.90;;;;;;6209148;23;20083;-74
2022/07/02 05:49:48;;;;;;;0.20;0.20;;;15.50;99.90;;;;;;6178312;23;20051;-74
2022/07/02 05:52:17;;;;;;;0.10;0.10;;;15.60;99.90;;;;;;6180344;23;20017;-74
2022/07/02 05:54:43;;;;;;;0.10;0.10;;;15.60;99.90;;;;;;6207519;23;20094;-74
2022/07/02 05:57:09;;;;;;;0.20;0.20;;;15.70;99.90;;;;;;6179555;23;20027;-74
2022/07/02 05:59:34;;;;;;;0.20;0.20;;;15.70;99.90;;;;;;6179222;23;20020;-74
2022/07/02 06:02:00;;;;;;;0.15;0.15;;;15.70;99.90;;;;;;6156768;23;20024;-74
2022/07/02 06:04:25;;;;;;;0.10;0.10;;;15.80;99.90;;;;;;6179745;23;20096;-73
2022/07/02 06:09:35;;;;;;;0.20;0.20;;;15.90;99.90;;;;;;6179940;23;20021;-74
2022/07/02 06:12:01;;;;;;;0.20;0.20;;;15.90;99.90;;;;;;6205661;23;20082;-74
2022/07/02 06:14:26;;;;;;;0.20;0.20;;;16.00;99.90;;;;;;6181412;23;20012;-74
2022/07/02 06:16:52;;;;;;;0.10;0.10;;;16.10;99.90;;;;;;6209143;23;20021;-73
2022/07/02 06:19:18;;;;;;;0.10;0.10;;;16.10;99.90;;;;;;6181307;23;20029;-74
2022/07/02 06:21:43;;;;;;;0.15;0.15;;;16.10;99.90;;;;;;6209107;23;20096;-74
2022/07/02 06:24:11;;;;;;;0.10;0.10;;;16.20;99.90;;;;;;6207091;23;20114;-74
2022/07/02 06:26:37;;;;;;;0.20;0.20;;;16.10;99.90;;;;;;6181080;23;20343;-74
2022/07/02 06:29:02;;;;;;;0.13;0.13;;;16.20;99.90;;;;;;6178625;23;20088;-74
2022/07/02 06:31:28;;;;;;;0.10;0.10;;;16.30;99.90;;;;;;6207073;23;20150;-74
2022/07/02 06:33:54;;;;;;;0.10;0.10;;;16.30;99.90;;;;;;6205954;23;20019;-74
2022/07/02 06:36:22;;;;;;;0.10;0.10;;;16.30;99.90;;;;;;6209917;23;20099;-75
2022/07/02 06:38:48;;;;;;;0.20;0.20;;;16.40;99.90;;;;;;6179959;23;20721;-75
2022/07/02 06:42:18;;;;;;;0.15;0.15;;;16.40;99.90;;;;;;6181367;23;20333;-75
2022/07/02 06:44:00;;;;;;;0.10;0.10;;;16.40;99.90;;;;;;6209598;23;20095;-75
2022/07/02 06:46:25;;;;;;;0.20;0.20;;;16.50;99.90;;;;;;6208880;23;20058;-75
2022/07/02 06:48:51;;;;;;;0.10;0.10;;;16.50;99.90;;;;;;6212311;23;20043;-75
2022/07/02 06:51:16;;;;;;;0.17;0.17;;;16.60;99.90;;;;;;6185254;23;20297;-75
2022/07/02 06:53:42;;;;;;;0.20;0.20;;;16.60;99.90;;;;;;6178713;23;20047;-76
2022/07/02 06:56:08;;;;;;;0.10;0.10;;;16.70;99.90;;;;;;6208894;23;20017;-76
2022/07/02 06:58:33;;;;;;;0.10;0.10;;;16.70;99.90;;;;;;6182338;23;20020;-76
2022/07/02 07:00:59;;;;;;;0.13;0.13;;;16.80;99.90;;;;;;6208934;23;20360;-76
2022/07/02 07:03:25;;;;;;;0.10;0.10;;;16.90;99.90;;;;;;6208570;23;20056;-74
2022/07/02 07:05:52;;;;;;;0.20;0.20;;;16.90;99.90;;;;;;6211201;23;20124;-73
2022/07/02 07:08:18;;;;;;;0.10;0.10;;;17.00;99.90;;;;;;6209168;23;20012;-73
2022/07/02 07:10:44;;;;;;;0.17;0.17;;;17.00;99.90;;;;;;6211644;23;20051;-72
2022/07/02 07:13:09;;;;;;;0.20;0.20;;;17.10;99.90;;;;;;6183996;23;20464;-73
2022/07/02 07:15:35;;;;;;;0.20;0.20;;;17.20;99.90;;;;;;6209235;23;20044;-73
2022/07/02 07:18:01;;;;;;;0.10;0.10;;;17.20;99.90;;;;;;6184753;23;20096;-77
2022/07/02 07:20:29;;;;;;;0.10;0.10;;;17.30;99.90;;;;;;6211011;23;20461;-74
2022/07/02 07:22:56;;;;;;;0.13;0.13;;;17.30;99.90;;;;;;6210397;23;20036;-76
2022/07/02 07:25:22;;;;;;;0.10;0.10;;;17.40;99.90;;;;;;6211420;23;20012;-73
2022/07/02 07:27:48;;;;;;;0.20;0.20;;;17.40;99.90;;;;;;6183347;23;20031;-73
2022/07/02 07:30:15;;;;;;;0.20;0.20;;;17.40;99.90;;;;;;6182779;23;20013;-73
2022/07/02 07:32:42;;;;;;;0.20;0.20;;;17.50;99.90;;;;;;6211009;23;20021;-74
2022/07/02 07:35:08;;;;;;;0.20;0.20;;;17.50;99.90;;;;;;6184706;23;20464;-74
2022/07/02 07:37:36;;;;;;;0.13;0.13;;;17.60;99.90;;;;;;6183613;23;20048;-75
2022/07/02 07:40:03;;;;;;;0.20;0.20;;;17.60;99.90;;;;;;6182875;23;20020;-74
2022/07/02 07:42:29;;;;;;;0.20;0.20;;;17.60;99.90;;;;;;6210649;23;20013;-74
2022/07/02 07:44:55;;;;;;;0.13;0.13;;;17.60;99.90;;;;;;6210744;23;20106;-74
2022/07/02 07:47:20;;;;;;;0.10;0.10;;;17.70;99.90;;;;;;6211435;23;20386;-75
2022/07/02 07:49:46;;;;;;;0.10;0.10;;;17.70;99.90;;;;;;6183055;23;20036;-75
2022/07/02 07:52:11;;;;;;;0.10;0.10;;;17.70;99.90;;;;;;6210662;23;20391;-74
2022/07/02 07:54:37;;;;;;;0.20;0.20;;;17.80;99.90;;;;;;6209297;23;20431;-74
2022/07/02 07:57:04;;;;;;;0.10;0.10;;;17.80;99.90;;;;;;6208863;23;20021;-75
2022/07/02 07:59:29;;;;;;;0.10;0.10;;;17.80;99.90;;;;;;6210125;23;20020;-74
2022/07/02 08:01:55;;;;;;;0.10;0.10;;;17.90;99.90;;;;;;6184733;23;20028;-72
2022/07/02 08:04:21;;;;;;;0.10;0.10;;;17.90;99.90;;;;;;6210097;23;20024;-72
2022/07/02 08:06:46;;;;;;;0.10;0.10;;;17.90;99.90;;;;;;6211313;23;20023;-73
2022/07/02 08:09:12;;;;;;;0.10;0.10;;;18.00;99.90;;;;;;6208753;23;20092;-76
2022/07/02 08:11:38;;;;;;;0.10;0.10;;;18.10;99.90;;;;;;6183565;23;20024;-74
2022/07/02 08:14:04;;;;;;;0.10;0.10;;;18.10;99.90;;;;;;6182529;23;20078;-73
2022/07/02 08:16:30;;;;;;;0.10;0.10;;;18.10;99.90;;;;;;6211736;23;20008;-73
2022/07/02 08:18:56;;;;;;;0.10;0.10;;;18.20;99.90;;;;;;6210290;23;20052;-71
2022/07/02 08:21:22;;;;;;;0.20;0.20;;;18.30;99.90;;;;;;6211494;23;20031;-77
2022/07/02 08:23:48;;;;;;;0.20;0.20;;;18.30;99.90;;;;;;6181841;23;20484;-75
2022/07/02 08:26:13;;;;;;;0.20;0.20;;;18.40;99.90;;;;;;6182249;23;20337;-75
2022/07/02 08:28:39;;;;;;;0.10;0.10;;;18.40;99.90;;;;;;6182229;23;20021;-74
2022/07/02 08:31:05;;;;;;;0.20;0.20;;;18.40;99.90;;;;;;6210694;23;20016;-75
2022/07/02 08:33:31;;;;;;;0.10;0.10;;;18.50;99.90;;;;;;6209652;23;20457;-75
2022/07/02 08:35:56;;;;;;;0.10;0.10;;;18.50;99.90;;;;;;6210884;23;20017;-74
2022/07/02 08:38:22;;;;;;;0.10;0.10;;;18.60;99.90;;;;;;6183196;23;20017;-75
2022/07/02 08:40:48;;;;;;;0.10;0.10;;;18.60;99.90;;;;;;6182998;23;20464;-75
2022/07/02 08:43:16;;;;;;;0.10;0.10;;;18.70;99.90;;;;;;6182804;23;20372;-75
2022/07/02 08:45:43;;;;;;;0.10;0.10;;;18.70;99.90;;;;;;6182867;23;20021;-75
2022/07/02 08:48:10;;;;;;;0.20;0.20;;;18.80;99.90;;;;;;6183857;23;20090;-76
2022/07/02 08:50:37;;;;;;;0.10;0.10;;;18.80;99.90;;;;;;6183357;23;20426;-75
2022/07/02 08:53:04;;;;;;;0.10;0.10;;;18.90;99.90;;;;;;6208359;23;20103;-76
2022/07/02 08:55:33;;;;;;;0.10;0.10;;;19.00;99.90;;;;;;6183684;23;20012;-75
2022/07/02 08:58:00;;;;;;;0.20;0.20;;;19.00;99.90;;;;;;6181767;23;20024;-75
2022/07/02 09:00:26;;;;;;;0.10;0.10;;;19.10;99.90;;;;;;6210075;23;20059;-75
2022/07/02 09:02:54;;;;;;;0.10;0.10;;;19.10;99.90;;;;;;6183289;23;20410;-77
2022/07/02 09:05:24;;;;;;;0.20;0.20;;;19.20;99.90;;;;;;6183858;23;20016;-75
2022/07/02 09:07:50;;;;;;;0.10;0.10;;;19.20;99.90;;;;;;6207946;23;20070;-75
2022/07/02 09:10:18;;;;;;;0.15;0.15;;;19.20;99.80;;;;;;6183561;23;20839;-79
2022/07/02 09:12:45;;;;;;;0.10;0.10;;;19.30;99.90;;;;;;6181813;23;20036;-76
2022/07/02 09:15:12;;;;;;;0.20;0.20;;;19.30;99.60;;;;;;6209856;23;20354;-76
2022/07/02 09:17:40;;;;;;;0.20;0.20;;;19.40;99.90;;;;;;6210569;23;20444;-75
2022/07/02 09:20:08;;;;;;;0.10;0.10;;;19.40;99.90;;;;;;6183348;23;20453;-76
2022/07/02 09:22:53;;;;;;;0.20;0.20;;;19.50;99.90;;;;;;6182564;23;20091;-75
2022/07/02 09:25:21;;;;;;;0.10;0.10;;;19.60;99.70;;;;;;6183726;23;20023;-75
2022/07/02 09:27:55;;;;;;;0.20;0.20;;;19.60;99.10;;;;;;6207990;23;20067;-75
2022/07/02 09:30:21;;;;;;;0.20;0.20;;;19.70;98.10;;;;;;6183924;23;20154;-74
2022/07/02 09:32:47;;;;;;;0.10;0.10;;;19.70;97.20;;;;;;6210342;23;20209;-75
2022/07/02 09:35:20;;;;;;;0.10;0.10;;;19.80;97.70;;;;;;6208291;23;20019;-74
2022/07/02 09:37:47;;;;;;;0.13;0.13;;;19.80;97.90;;;;;;6182891;23;20091;-76
2022/07/02 09:40:14;;;;;;;0.10;0.10;;;19.90;96.60;;;;;;6209221;23;20012;-77
2022/07/02 09:42:46;;;;;;;0.20;0.20;;;20.00;95.00;;;;;;6181719;23;20095;-75
2022/07/02 09:45:14;;;;;;;0.13;0.13;;;20.00;94.70;;;;;;6183759;23;20434;-75
2022/07/02 09:47:48;;;;;;;0.10;0.10;;;20.00;93.40;;;;;;6211029;23;20198;-75
2022/07/02 09:50:14;;;;;;;0.10;0.10;;;20.00;94.50;;;;;;6210168;23;20386;-75
2022/07/02 09:52:54;;;;;;;0.10;0.10;;;20.00;94.20;;;;;;6210387;23;20116;-74
2022/07/02 09:55:24;;;;;;;0.20;0.20;;;20.10;93.50;;;;;;6184043;23;20397;-74
2022/07/02 09:58:00;;;;;;;0.20;0.20;;;20.10;93.70;;;;;;6180866;23;20017;-74
2022/07/02 10:00:33;;;;;;;0.10;0.10;;;20.20;93.90;;;;;;6210900;23;20024;-74
2022/07/02 10:03:01;;;;;;;0.20;0.20;;;20.30;93.60;;;;;;6209182;23;20024;-74
2022/07/02 10:05:33;;;;;;;0.20;0.20;;;20.30;92.90;;;;;;6184077;23;20044;-75
2022/07/02 10:08:01;;;;;;;0.20;0.20;;;20.40;92.10;;;;;;6182908;23;20353;-74
2022/07/02 10:10:33;;;;;;;0.20;0.20;;;20.40;92.80;;;;;;6210091;23;20017;-75
2022/07/02 10:12:58;;;;;;;0.10;0.10;;;20.40;93.50;;;;;;6208499;23;20128;-75
2022/07/02 10:15:29;;;;;;;0.10;0.10;;;20.60;92.10;;;;;;6211633;23;20024;-75
2022/07/02 10:17:56;;;;;;;0.20;0.20;;;20.50;92.10;;;;;;6211425;23;20453;-75
2022/07/02 10:20:23;;;;;;;0.20;0.20;;;20.70;93.30;;;;;;6212194;23;20421;-76
2022/07/02 10:22:52;;;;;;;0.20;0.20;;;20.80;91.60;;;;;;6184706;23;20027;-76
2022/07/02 10:25:19;;;;;;;0.20;0.20;;;20.80;92.00;;;;;;6184278;23;20092;-75
2022/07/02 10:27:48;;;;;;;0.20;0.20;;;20.80;92.00;;;;;;6183899;23;20017;-75
2022/07/02 10:30:20;;;;;;;0.20;0.20;;;20.90;92.30;;;;;;6212497;23;20508;-75
2022/07/02 10:32:52;;;;;;;0.20;0.20;;;21.00;90.90;;;;;;6182844;23;20021;-75
2022/07/02 10:35:20;;;;;;;0.10;0.10;;;21.00;90.30;;;;;;6212101;23;20020;-75
2022/07/02 10:37:46;;;;;;;0.20;0.20;;;21.00;90.70;;;;;;6183590;23;20094;-76
2022/07/02 10:40:19;;;;;;;0.20;0.20;;;21.10;91.80;;;;;;6211441;23;20392;-75
2022/07/02 10:42:48;;;;;;;0.20;0.20;;;21.20;91.90;;;;;;6210857;23;20024;-76
2022/07/02 10:45:21;;;;;;;0.10;0.10;;;21.30;89.60;;;;;;6210990;23;20080;-77
2022/07/02 10:48:01;;;;;;;0.20;0.20;;;21.30;89.00;;;;;;6211063;23;20627;-76
2022/07/02 10:50:45;;;;;;;0.20;0.20;;;21.30;87.40;;;;;;6185156;23;20043;-75
2022/07/02 10:53:16;;;;;;;0.20;0.20;;;21.40;90.10;;;;;;6183542;23;20020;-76
2022/07/02 10:55:44;;;;;;;0.10;0.10;;;21.30;90.60;;;;;;6184696;23;20154;-76
2022/07/02 10:58:19;;;;;;;0.20;0.20;;;21.30;90.40;;;;;;6183654;23;20103;-75
2022/07/02 11:00:44;;;;;;;0.20;0.20;;;21.40;90.10;;;;;;6211020;23;20321;-76
2022/07/02 11:03:14;;;;;;;0.20;0.20;;;21.40;90.40;;;;;;6210526;23;20024;-75
2022/07/02 11:06:00;;;;;;;0.20;0.20;;;21.40;89.70;;;;;;6211116;23;20345;-75
2022/07/02 11:08:44;;;;;;;0.10;0.10;;;21.40;88.20;;;;;;6183628;23;20040;-75
2022/07/02 11:11:34;;;;;;;0.20;0.20;;;21.50;89.80;;;;;;6184821;23;20025;-75
2022/07/02 11:14:01;;;;;;;0.20;0.20;;;21.50;90.10;;;;;;6184016;23;20032;-77
2022/07/02 11:16:45;;;;;;;0.10;0.10;;;21.50;88.20;;;;;;6185533;23;20013;-75
2022/07/02 11:19:16;;;;;;;0.20;0.20;;;21.50;90.40;;;;;;6184488;23;20021;-76
2022/07/02 11:21:42;;;;;;;0.20;0.20;;;21.60;91.20;;;;;;6212359;23;20012;-75
2022/07/02 11:24:10;;;;;;;0.10;0.10;;;21.60;91.30;;;;;;6184255;23;20028;-76
2022/07/02 11:26:40;;;;;;;0.20;0.20;;;21.70;91.40;;;;;;6213638;23;20441;-76
2022/07/02 11:29:05;;;;;;;0.20;0.20;;;21.80;89.10;;;;;;6208275;23;20017;-76
2022/07/02 11:31:36;;;;;;;0.20;0.20;;;21.90;86.30;;;;;;6211529;23;20051;-76
2022/07/02 11:34:02;;;;;;;0.20;0.20;;;22.00;87.60;;;;;;6212280;23;20017;-76
2022/07/02 11:36:28;;;;;;;0.10;0.10;;;22.20;88.10;;;;;;6211419;23;20020;-76
2022/07/02 11:38:55;;;;;;;0.20;0.20;;;22.30;86.70;;;;;;6211122;23;20071;-77
2022/07/02 11:41:33;;;;;;;0.20;0.20;;;22.30;82.50;;;;;;6184112;23;20021;-77
2022/07/02 11:44:00;;;;;;;0.10;0.10;;;22.30;83.50;;;;;;6209695;23;20039;-77
2022/07/02 11:46:28;;;;;;;0.20;0.20;;;22.20;84.20;;;;;;6184081;23;20013;-76
2022/07/02 11:48:55;;;;;;;0.20;0.20;;;22.10;85.10;;;;;;6183321;23;20333;-77
2022/07/02 11:51:21;;;;;;;0.13;0.13;;;22.20;85.40;;;;;;6184130;23;20465;-77
2022/07/02 11:54:02;;;;;;;0.20;0.20;;;22.20;84.90;;;;;;6210401;23;20027;-76
2022/07/02 11:56:29;;;;;;;0.20;0.20;;;22.20;84.90;;;;;;6210508;23;20204;-76
2022/07/02 11:58:55;;;;;;;0.20;0.20;;;22.20;86.10;;;;;;6208717;23;20035;-76
2022/07/02 12:01:24;;;;;;;0.15;0.15;;;22.20;87.30;;;;;;6210719;23;20038;-76
2022/07/02 12:03:52;;;;;;;0.20;0.20;;;22.40;86.60;;;;;;6207063;23;20082;-76
2022/07/02 12:06:18;;;;;;;0.20;0.20;;;22.40;88.60;;;;;;6181367;23;20122;-76
2022/07/02 12:08:44;;;;;;;0.10;0.10;;;22.40;87.70;;;;;;6180613;23;20016;-76
2022/07/02 12:11:18;;;;;;;0.20;0.20;;;22.30;87.10;;;;;;6209517;23;20027;-76
2022/07/02 12:13:45;;;;;;;0.20;0.20;;;22.30;86.20;;;;;;6206908;23;20020;-76
2022/07/02 12:16:19;;;;;;;0.10;0.10;;;22.20;85.50;;;;;;6207373;23;20035;-77
2022/07/02 12:18:59;;;;;;;0.20;0.20;;;22.20;86.20;;;;;;6181625;23;20457;-76
2022/07/02 12:21:37;;;;;;;0.20;0.20;;;22.20;86.50;;;;;;6183014;23;20012;-76
2022/07/02 12:24:21;;;;;;;0.15;0.15;;;22.20;87.10;;;;;;6182405;23;20092;-77
2022/07/02 12:26:55;;;;;;;0.20;0.20;;;22.20;84.30;;;;;;6210835;23;20017;-76
2022/07/02 12:32:21;;;;;;;0.20;0.20;;;22.20;85.30;;;;;;6181884;23;20071;-76
2022/07/02 12:34:58;;;;;;;0.15;0.15;;;22.20;85.00;;;;;;6183844;23;20052;-76
2022/07/02 12:37:31;;;;;;;0.20;0.20;;;22.20;87.70;;;;;;6209888;23;20009;-76
2022/07/02 12:39:59;;;;;;;0.20;0.20;;;22.20;86.90;;;;;;6209210;23;20457;-77
2022/07/02 12:42:25;;;;;;;0.20;0.20;;;22.30;87.90;;;;;;6183642;23;20031;-77
2022/07/02 12:45:03;;;;;;;0.20;0.20;;;22.30;88.30;;;;;;6181433;23;20012;-76
2022/07/02 12:47:38;;;;;;;0.20;0.20;;;22.40;90.10;;;;;;6210328;23;20083;-77
2022/07/02 12:50:10;;;;;;;0.20;0.20;;;22.40;88.90;;;;;;6210199;23;20044;-77
2022/07/02 12:52:47;;;;;;;0.20;0.20;;;22.40;88.40;;;;;;6208131;23;20028;-77
2022/07/02 12:55:34;;;;;;;0.20;0.20;;;22.40;87.00;;;;;;6182007;23;20028;-77
2022/07/02 12:58:05;;;;;;;0.20;0.20;;;22.40;85.90;;;;;;6181476;23;20017;-77